createdAt,value
2023-01-13T00:02:37.201Z,7.29
2023-01-13T00:14:38.062Z,7.31
2023-01-13T00:33:02.263Z,7.25
2023-01-13T00:50:40.390Z,7.14
2023-01-13T01:17:59.178Z,7.32
2023-01-13T01:38:06.087Z,7.28
2023-01-13T01:42:37.456Z,7.22
2023-01-13T01:47:09.699Z,7.21
2023-01-13T01:54:02.285Z,7.27
2023-01-13T02:03:35.543Z,7.28
2023-01-13T02:07:45.772Z,7.29
2023-01-13T02:11:06.695Z,7.17
2023-01-13T02:15:53.516Z,7.17
2023-01-13T02:21:08.012Z,7.19
2023-01-13T02:34:34.837Z,7.26
2023-01-13T02:43:12.942Z,7.12
2023-01-13T02:48:21.405Z,7.12
2023-01-13T02:52:01.961Z,7.26
2023-01-13T03:01:47.913Z,7.28
2023-01-13T03:05:56.485Z,7.19
2023-01-13T03:10:46.622Z,7.17
2023-01-13T03:15:56.895Z,7.15
2023-01-13T03:20:57.748Z,7.12
2023-01-13T03:31:19.083Z,7.16
2023-01-13T03:34:11.932Z,7.09
2023-01-13T03:39:13.369Z,7.09
2023-01-13T03:44:53.054Z,7.19
2023-01-13T03:48:12.553Z,7.08
2023-01-13T03:50:50.666Z,7
2023-01-13T03:56:06.023Z,7
2023-01-13T04:00:50.674Z,6.99
2023-01-13T04:06:09.392Z,6.99
2023-01-13T04:10:53.934Z,6.99
2023-01-13T04:16:05.416Z,6.97
2023-01-13T04:21:11.807Z,7.02
2023-01-13T04:30:58.031Z,7.09
2023-01-13T04:35:40.182Z,7.12
2023-01-13T04:36:50.518Z,7.19
2023-01-13T04:40:25.662Z,7.14
2023-01-13T04:45:22.421Z,7.17
2023-01-13T04:50:11.292Z,7.19
2023-01-13T04:55:25.747Z,7.18
2023-01-13T05:00:24.377Z,7.16
2023-01-13T05:05:21.419Z,7.14
2023-01-13T05:10:17.158Z,7.12
2023-01-13T05:15:31.657Z,7.09
2023-01-13T05:20:25.631Z,7.08
2023-01-13T05:25:44.268Z,7.04
2023-01-13T05:30:25.784Z,7.04
2023-01-13T05:35:38.142Z,7.05
2023-01-13T05:40:24.875Z,7.06
2023-01-13T05:45:31.002Z,7.08
2023-01-13T05:50:19.887Z,7.1
2023-01-13T05:55:25.012Z,7.12
2023-01-13T06:00:21.064Z,7.13
2023-01-13T06:05:09.478Z,7.16
2023-01-13T06:10:16.805Z,7.18
2023-01-13T06:20:34.917Z,7.24
2023-01-13T06:25:12.949Z,7.24
2023-01-13T06:30:56.600Z,7.28
2023-01-13T06:54:48.808Z,7.37
2023-01-13T07:04:43.963Z,7.2
2023-01-13T07:10:18.416Z,7.28
2023-01-13T07:12:13.192Z,7.26
2023-01-13T07:22:12.243Z,7.17
2023-01-13T07:36:25.900Z,7.31
2023-01-13T07:40:20.634Z,7.16
2023-01-13T07:53:35.751Z,7.34
2023-01-13T08:01:47.048Z,7.24
2023-01-13T08:21:39.751Z,7.34
2023-01-13T08:27:09.549Z,7.37
2023-01-13T08:33:21.355Z,7.51
2023-01-13T08:37:27.425Z,7.4
2023-01-13T08:42:56.388Z,7.43
2023-01-13T09:00:18.873Z,7.62
2023-01-13T09:08:25.327Z,7.48
2023-01-13T09:13:41.555Z,7.5
2023-01-13T09:18:14.081Z,7.53
2023-01-13T09:28:48.150Z,7.63
2023-01-13T09:32:33.354Z,7.57
2023-01-13T09:37:32.333Z,7.57
2023-01-13T09:43:03.403Z,7.72
2023-01-13T09:45:36.205Z,7.61
2023-01-13T09:50:48.313Z,7.62
2023-01-13T09:55:39.906Z,7.62
2023-01-13T10:00:50.829Z,7.65
2023-01-13T10:05:32.472Z,7.67
2023-01-13T10:10:43.114Z,7.66
2023-01-13T10:15:31.656Z,7.69
2023-01-13T10:20:36.107Z,7.68
2023-01-13T10:25:47.288Z,7.73
2023-01-13T10:30:43.553Z,7.75
2023-01-13T10:35:43.218Z,7.79
2023-01-13T10:40:36.020Z,7.81
2023-01-13T10:48:09.294Z,7.91
2023-01-13T10:51:24.049Z,7.84
2023-01-13T10:56:09.386Z,7.86
2023-01-13T11:01:09.253Z,7.92
2023-01-13T11:06:19.356Z,7.95
2023-01-13T11:11:24.471Z,8
2023-01-13T11:16:52.791Z,8.03
2023-01-13T11:21:10.453Z,8.08
2023-01-13T11:26:25.856Z,8.13
2023-01-13T11:31:17.995Z,8.2
2023-01-13T11:36:23.694Z,8.25
2023-01-13T11:41:31.816Z,8.26
2023-01-13T11:46:22.528Z,8.31
2023-01-13T11:51:21.978Z,8.35
2023-01-13T11:56:27.229Z,8.36
2023-01-13T12:01:20.891Z,8.36
2023-01-13T12:06:23.678Z,8.4
2023-01-13T12:11:32.176Z,8.44
2023-01-13T12:16:34.747Z,8.44
2023-01-13T12:21:15.722Z,8.42
2023-01-13T12:26:31.329Z,8.41
2023-01-13T12:31:19.087Z,8.44
2023-01-13T12:36:18.909Z,8.45
2023-01-13T12:41:19.438Z,8.45
2023-01-13T12:46:28.412Z,8.46
2023-01-13T12:51:11.518Z,8.47
2023-01-13T12:56:20.590Z,8.46
2023-01-13T13:01:32.617Z,8.45
2023-01-13T13:07:10.584Z,8.44
2023-01-13T13:11:33.450Z,8.44
2023-01-13T13:16:29.916Z,8.42
2023-01-13T13:21:16.258Z,8.42
2023-01-13T13:26:24.792Z,8.41
2023-01-13T13:31:21.598Z,8.43
2023-01-13T13:36:25.600Z,8.41
2023-01-13T13:41:27.859Z,8.43
2023-01-13T13:46:32.860Z,8.44
2023-01-13T13:51:22.808Z,8.47
2023-01-13T13:56:42.839Z,8.48
2023-01-13T14:01:15.086Z,8.49
2023-01-13T14:06:14.649Z,8.49
2023-01-13T14:11:22.423Z,8.47
2023-01-13T14:16:27.386Z,8.46
2023-01-13T14:21:32.933Z,8.47
2023-01-13T14:26:17.686Z,8.42
2023-01-13T14:31:25.052Z,8.41
2023-01-13T14:36:28.001Z,8.39
2023-01-13T14:41:20.251Z,8.38
2023-01-13T14:46:10.579Z,8.38
2023-01-13T14:51:23.899Z,8.37
2023-01-13T14:56:33.538Z,8.35
2023-01-13T15:01:24.020Z,8.35
2023-01-13T15:12:49.014Z,8.47
2023-01-13T15:17:01.478Z,8.32
2023-01-13T15:21:59.113Z,8.29
2023-01-13T15:25:15.325Z,8.36
2023-01-13T15:26:21.255Z,8.37
2023-01-13T15:30:39.086Z,8.28
2023-01-13T15:35:45.529Z,8.26
2023-01-13T15:40:58.606Z,8.22
2023-01-13T15:45:55.850Z,8.2
2023-01-13T15:51:07.992Z,8.18
2023-01-13T15:56:13.045Z,8.16
2023-01-13T15:57:45.404Z,8.24
2023-01-13T16:02:27.177Z,8.14
2023-01-13T16:07:29.448Z,8.12
2023-01-13T16:12:30.918Z,8.1
2023-01-13T16:17:32.480Z,8.08
2023-01-13T16:22:36.331Z,8.07
2023-01-13T16:27:22.242Z,8.06
2023-01-13T16:32:22.582Z,8.05
2023-01-13T16:37:24.474Z,8.03
2023-01-13T16:42:32.191Z,8.01
2023-01-13T16:47:42.149Z,8
2023-01-13T16:52:38.447Z,8
2023-01-13T16:57:32.359Z,7.99
2023-01-13T17:02:30.815Z,7.98
2023-01-13T17:07:40.577Z,7.96
2023-01-13T17:12:25.660Z,7.93
2023-01-13T17:17:28.579Z,7.89
2023-01-13T17:22:30.910Z,7.86
2023-01-13T17:27:36.036Z,7.82
2023-01-13T17:32:23.473Z,7.79
2023-01-13T17:37:22.976Z,7.74
2023-01-13T17:42:31.205Z,7.7
2023-01-13T19:11:32.852Z,7.59
2023-01-13T19:28:11.470Z,7.42
2023-01-13T19:47:01.898Z,7.32
2023-01-13T19:52:34.256Z,7.34
2023-01-13T19:57:25.057Z,7.3
2023-01-13T20:01:53.052Z,7.32
2023-01-13T20:02:48.136Z,7.34
2023-01-13T20:07:30.073Z,7.3
2023-01-13T20:19:32.852Z,7.05
2023-01-13T20:29:30.262Z,7.08
2023-01-13T20:34:42.376Z,7.1
2023-01-13T20:44:26.871Z,7.15
2023-01-13T20:49:10.465Z,7.18
2023-01-13T20:53:18.824Z,7.27
2023-01-13T20:59:32.096Z,7.34
2023-01-13T21:18:56.171Z,7.44
2023-01-13T21:34:59.461Z,7.36
2023-01-13T21:39:29.599Z,7.41
2023-01-13T21:42:02.790Z,7.29
2023-01-13T21:47:01.544Z,7.28
2023-01-13T21:52:48.066Z,7.28
2023-01-13T21:57:18.816Z,7.29
2023-01-13T22:03:52.555Z,7.36
2023-01-13T22:06:05.699Z,7.29
2023-01-13T22:11:15.732Z,7.29
2023-01-13T22:16:07.428Z,7.3
2023-01-13T22:20:56.484Z,7.29
2023-01-13T22:25:57.059Z,7.29
2023-01-13T22:31:05.017Z,7.3
2023-01-13T22:36:14.246Z,7.3
2023-01-13T22:41:06.964Z,7.31
2023-01-13T22:46:07.389Z,7.31
2023-01-13T22:51:17.972Z,7.31
2023-01-13T22:56:27.992Z,7.31
2023-01-13T23:02:47.531Z,7.39
2023-01-13T23:07:08.103Z,7.3
2023-01-13T23:13:51.585Z,7.4
2023-01-13T23:26:01.393Z,7.46
2023-01-13T23:33:09.865Z,7.35
2023-01-13T23:36:47.118Z,7.28
2023-01-13T23:41:52.992Z,7.26
2023-01-13T23:46:43.244Z,7.25
2023-01-13T23:51:40.883Z,7.23
2023-01-13T23:56:30.923Z,7.22
